sensor_id;sensor_type;location;lat;lon;timestamp;pressure;altitude;pressure_sealevel;temperature;humidity
21359;BME280;13506;50.852;20.632;2023-12-22T00:01:43;94935.19;;;7.95;100.00
21359;BME280;13506;50.852;20.632;2023-12-22T00:04:13;94912.53;;;7.97;100.00
21359;BME280;13506;50.852;20.632;2023-12-22T00:06:42;94920.94;;;7.99;100.00
21359;BME280;13506;50.852;20.632;2023-12-22T00:09:10;94922.59;;;8.00;100.00
21359;BME280;13506;50.852;20.632;2023-12-22T00:11:38;94931.16;;;8.01;99.11
21359;BME280;13506;50.852;20.632;2023-12-22T00:14:06;94944.72;;;7.94;96.51
21359;BME280;13506;50.852;20.632;2023-12-22T00:16:34;94939.56;;;7.94;96.73
21359;BME280;13506;50.852;20.632;2023-12-22T00:19:04;94942.63;;;7.90;96.95
21359;BME280;13506;50.852;20.632;2023-12-22T00:21:33;94940.19;;;7.88;95.54
21359;BME280;13506;50.852;20.632;2023-12-22T00:24:01;94943.38;;;7.82;94.74
21359;BME280;13506;50.852;20.632;2023-12-22T00:26:29;94943.84;;;7.78;94.63
21359;BME280;13506;50.852;20.632;2023-12-22T00:28:57;94947.41;;;7.77;94.67
21359;BME280;13506;50.852;20.632;2023-12-22T00:31:25;94946.59;;;7.76;94.78
21359;BME280;13506;50.852;20.632;2023-12-22T00:33:53;94949.00;;;7.69;94.15
21359;BME280;13506;50.852;20.632;2023-12-22T00:36:21;94953.84;;;7.64;93.67
21359;BME280;13506;50.852;20.632;2023-12-22T00:38:53;94961.59;;;7.64;93.95
21359;BME280;13506;50.852;20.632;2023-12-22T00:41:21;94964.81;;;7.58;92.59
21359;BME280;13506;50.852;20.632;2023-12-22T00:43:49;94954.09;;;7.53;92.92
21359;BME280;13506;50.852;20.632;2023-12-22T00:46:17;94987.06;;;7.51;92.83
21359;BME280;13506;50.852;20.632;2023-12-22T00:48:46;94979.47;;;7.49;92.29
21359;BME280;13506;50.852;20.632;2023-12-22T00:51:14;94975.09;;;7.50;93.35
21359;BME280;13506;50.852;20.632;2023-12-22T00:53:42;94996.75;;;7.49;91.92
21359;BME280;13506;50.852;20.632;2023-12-22T00:56:12;95002.22;;;7.46;91.78
21359;BME280;13506;50.852;20.632;2023-12-22T00:58:40;94998.84;;;7.45;91.75
21359;BME280;13506;50.852;20.632;2023-12-22T01:01:09;95006.59;;;7.45;91.98
21359;BME280;13506;50.852;20.632;2023-12-22T01:03:36;95001.44;;;7.45;91.95
21359;BME280;13506;50.852;20.632;2023-12-22T01:06:05;94992.50;;;7.40;92.60
21359;BME280;13506;50.852;20.632;2023-12-22T01:08:32;95012.22;;;7.41;92.02
21359;BME280;13506;50.852;20.632;2023-12-22T01:11:00;95016.13;;;7.45;92.44
21359;BME280;13506;50.852;20.632;2023-12-22T01:13:30;95018.69;;;7.45;92.27
21359;BME280;13506;50.852;20.632;2023-12-22T01:15:58;95023.06;;;7.44;91.85
21359;BME280;13506;50.852;20.632;2023-12-22T01:18:26;95022.91;;;7.46;91.62
21359;BME280;13506;50.852;20.632;2023-12-22T01:20:56;95031.63;;;7.45;90.96
21359;BME280;13506;50.852;20.632;2023-12-22T01:23:24;95030.38;;;7.49;92.08
21359;BME280;13506;50.852;20.632;2023-12-22T01:25:53;95035.53;;;7.49;92.36
21359;BME280;13506;50.852;20.632;2023-12-22T01:28:22;95030.69;;;7.46;90.96
21359;BME280;13506;50.852;20.632;2023-12-22T01:30:52;95033.56;;;7.43;90.83
21359;BME280;13506;50.852;20.632;2023-12-22T01:33:20;95036.72;;;7.28;89.72
21359;BME280;13506;50.852;20.632;2023-12-22T01:35:48;95021.75;;;7.14;89.43
21359;BME280;13506;50.852;20.632;2023-12-22T01:38:16;95035.34;;;6.98;89.57
21359;BME280;13506;50.852;20.632;2023-12-22T01:40:45;95027.97;;;6.85;90.72
21359;BME280;13506;50.852;20.632;2023-12-22T01:43:13;95032.25;;;6.77;90.88
21359;BME280;13506;50.852;20.632;2023-12-22T01:45:42;95028.84;;;6.58;89.97
21359;BME280;13506;50.852;20.632;2023-12-22T01:48:12;95030.34;;;6.61;91.33
21359;BME280;13506;50.852;20.632;2023-12-22T01:50:41;95022.22;;;6.56;91.01
21359;BME280;13506;50.852;20.632;2023-12-22T01:53:11;95017.63;;;6.49;91.11
21359;BME280;13506;50.852;20.632;2023-12-22T01:55:39;95018.59;;;6.48;91.39
21359;BME280;13506;50.852;20.632;2023-12-22T01:58:08;95015.31;;;6.28;91.75
21359;BME280;13506;50.852;20.632;2023-12-22T02:00:36;95029.50;;;6.42;92.62
21359;BME280;13506;50.852;20.632;2023-12-22T02:03:04;95026.84;;;6.34;92.44
21359;BME280;13506;50.852;20.632;2023-12-22T02:05:35;95016.53;;;6.34;92.49
21359;BME280;13506;50.852;20.632;2023-12-22T02:08:06;95026.63;;;6.27;93.00
21359;BME280;13506;50.852;20.632;2023-12-22T02:10:34;95016.88;;;6.21;93.20
21359;BME280;13506;50.852;20.632;2023-12-22T02:13:03;95012.81;;;6.19;92.74
21359;BME280;13506;50.852;20.632;2023-12-22T02:15:32;95005.78;;;6.11;93.19
21359;BME280;13506;50.852;20.632;2023-12-22T02:18:04;95014.28;;;6.03;93.29
21359;BME280;13506;50.852;20.632;2023-12-22T02:20:36;95000.97;;;5.98;93.69
21359;BME280;13506;50.852;20.632;2023-12-22T02:23:05;95001.94;;;5.97;93.31
21359;BME280;13506;50.852;20.632;2023-12-22T02:25:34;95020.69;;;5.89;93.91
21359;BME280;13506;50.852;20.632;2023-12-22T02:28:05;95007.53;;;5.83;94.10
21359;BME280;13506;50.852;20.632;2023-12-22T02:30:39;95000.91;;;5.80;93.94
21359;BME280;13506;50.852;20.632;2023-12-22T02:33:10;95004.84;;;5.75;94.23
21359;BME280;13506;50.852;20.632;2023-12-22T02:35:43;95004.19;;;5.72;94.38
21359;BME280;13506;50.852;20.632;2023-12-22T02:38:13;95003.81;;;5.67;94.78
21359;BME280;13506;50.852;20.632;2023-12-22T02:40:44;94999.34;;;5.69;94.75
21359;BME280;13506;50.852;20.632;2023-12-22T02:43:12;95001.06;;;5.69;94.56
21359;BME280;13506;50.852;20.632;2023-12-22T02:45:39;95005.44;;;5.68;94.28
21359;BME280;13506;50.852;20.632;2023-12-22T02:48:07;95008.69;;;5.70;94.49
21359;BME280;13506;50.852;20.632;2023-12-22T02:50:36;95006.53;;;5.66;94.27
21359;BME280;13506;50.852;20.632;2023-12-22T02:53:03;95007.19;;;5.68;93.96
21359;BME280;13506;50.852;20.632;2023-12-22T02:55:33;95007.47;;;5.65;93.82
21359;BME280;13506;50.852;20.632;2023-12-22T02:58:01;94994.34;;;5.58;92.77
21359;BME280;13506;50.852;20.632;2023-12-22T03:00:29;95006.56;;;5.56;93.27
21359;BME280;13506;50.852;20.632;2023-12-22T03:02:57;94997.88;;;5.57;92.79
21359;BME280;13506;50.852;20.632;2023-12-22T03:05:27;95006.13;;;5.61;92.64
21359;BME280;13506;50.852;20.632;2023-12-22T03:07:55;95000.84;;;5.62;92.66
21359;BME280;13506;50.852;20.632;2023-12-22T03:10:23;95013.47;;;5.65;92.96
21359;BME280;13506;50.852;20.632;2023-12-22T03:12:52;95014.38;;;5.74;92.75
21359;BME280;13506;50.852;20.632;2023-12-22T03:15:20;95005.16;;;5.71;92.39
21359;BME280;13506;50.852;20.632;2023-12-22T03:17:48;95001.50;;;5.64;92.13
21359;BME280;13506;50.852;20.632;2023-12-22T03:20:17;95002.75;;;5.60;92.77
21359;BME280;13506;50.852;20.632;2023-12-22T03:22:45;95004.38;;;5.61;91.89
21359;BME280;13506;50.852;20.632;2023-12-22T03:25:13;95001.69;;;5.53;91.79
21359;BME280;13506;50.852;20.632;2023-12-22T03:27:41;94993.19;;;5.43;91.29
21359;BME280;13506;50.852;20.632;2023-12-22T03:30:12;95002.50;;;5.44;90.69
21359;BME280;13506;50.852;20.632;2023-12-22T03:32:39;95003.34;;;5.44;90.77
21359;BME280;13506;50.852;20.632;2023-12-22T03:35:07;95012.44;;;5.39;90.50
21359;BME280;13506;50.852;20.632;2023-12-22T03:37:35;95016.94;;;5.37;89.66
21359;BME280;13506;50.852;20.632;2023-12-22T03:40:03;95013.69;;;5.35;89.21
21359;BME280;13506;50.852;20.632;2023-12-22T03:42:31;95009.31;;;5.35;89.38
21359;BME280;13506;50.852;20.632;2023-12-22T03:44:59;95003.66;;;5.32;88.77
21359;BME280;13506;50.852;20.632;2023-12-22T03:47:29;95004.03;;;5.37;88.56
21359;BME280;13506;50.852;20.632;2023-12-22T03:49:57;95000.78;;;5.35;87.88
21359;BME280;13506;50.852;20.632;2023-12-22T03:52:25;95003.09;;;5.38;87.67
21359;BME280;13506;50.852;20.632;2023-12-22T03:54:53;94994.03;;;5.34;86.72
21359;BME280;13506;50.852;20.632;2023-12-22T03:57:21;95013.69;;;5.35;86.32
21359;BME280;13506;50.852;20.632;2023-12-22T03:59:49;95003.00;;;5.29;85.46
21359;BME280;13506;50.852;20.632;2023-12-22T04:02:18;95009.38;;;5.25;85.24
21359;BME280;13506;50.852;20.632;2023-12-22T04:04:49;94991.03;;;5.28;84.84
21359;BME280;13506;50.852;20.632;2023-12-22T04:07:17;94994.59;;;5.27;84.07
21359;BME280;13506;50.852;20.632;2023-12-22T04:09:45;94999.88;;;5.26;84.58
21359;BME280;13506;50.852;20.632;2023-12-22T04:12:13;94999.88;;;5.26;83.64
21359;BME280;13506;50.852;20.632;2023-12-22T04:14:41;95006.13;;;5.23;83.90
21359;BME280;13506;50.852;20.632;2023-12-22T04:17:09;94999.63;;;5.19;83.81
21359;BME280;13506;50.852;20.632;2023-12-22T04:19:37;94989.06;;;5.13;83.92
21359;BME280;13506;50.852;20.632;2023-12-22T04:22:06;95009.25;;;5.07;83.83
21359;BME280;13506;50.852;20.632;2023-12-22T04:24:34;95009.69;;;5.03;84.29
21359;BME280;13506;50.852;20.632;2023-12-22T04:27:02;95011.19;;;4.96;84.53
21359;BME280;13506;50.852;20.632;2023-12-22T04:29:32;95004.94;;;4.98;85.00
21359;BME280;13506;50.852;20.632;2023-12-22T04:32:00;95025.69;;;4.97;85.16
21359;BME280;13506;50.852;20.632;2023-12-22T04:34:28;95008.06;;;4.92;85.06
21359;BME280;13506;50.852;20.632;2023-12-22T04:36:56;95021.91;;;4.91;85.05
21359;BME280;13506;50.852;20.632;2023-12-22T04:39:26;95035.44;;;4.93;85.33
21359;BME280;13506;50.852;20.632;2023-12-22T04:41:54;95030.84;;;4.87;85.27
21359;BME280;13506;50.852;20.632;2023-12-22T04:44:22;95018.66;;;4.89;85.46
21359;BME280;13506;50.852;20.632;2023-12-22T04:46:50;95033.28;;;4.88;85.53
21359;BME280;13506;50.852;20.632;2023-12-22T04:49:18;95033.44;;;4.87;85.76
21359;BME280;13506;50.852;20.632;2023-12-22T04:51:46;95026.94;;;4.83;85.67
21359;BME280;13506;50.852;20.632;2023-12-22T04:54:14;95030.56;;;4.80;86.18
21359;BME280;13506;50.852;20.632;2023-12-22T04:56:43;95046.84;;;4.81;86.67
21359;BME280;13506;50.852;20.632;2023-12-22T04:59:12;95039.63;;;4.84;86.25
21359;BME280;13506;50.852;20.632;2023-12-22T05:01:40;95038.84;;;4.84;85.94
21359;BME280;13506;50.852;20.632;2023-12-22T05:04:09;95039.94;;;4.81;86.21
21359;BME280;13506;50.852;20.632;2023-12-22T05:06:37;95056.19;;;4.82;86.08
21359;BME280;13506;50.852;20.632;2023-12-22T05:09:06;95033.81;;;4.82;86.25
21359;BME280;13506;50.852;20.632;2023-12-22T05:11:34;95037.91;;;4.85;85.69
21359;BME280;13506;50.852;20.632;2023-12-22T05:14:05;95033.28;;;4.88;85.37
21359;BME280;13506;50.852;20.632;2023-12-22T05:16:32;95046.69;;;4.92;85.06
21359;BME280;13506;50.852;20.632;2023-12-22T05:19:01;95050.50;;;4.98;84.27
21359;BME280;13506;50.852;20.632;2023-12-22T05:21:29;95047.94;;;4.98;83.58
21359;BME280;13506;50.852;20.632;2023-12-22T05:23:57;95053.06;;;4.98;83.66
21359;BME280;13506;50.852;20.632;2023-12-22T05:26:26;95053.34;;;4.95;82.77
21359;BME280;13506;50.852;20.632;2023-12-22T05:28:57;95054.44;;;5.02;82.85
21359;BME280;13506;50.852;20.632;2023-12-22T05:31:26;95044.94;;;5.02;82.89
21359;BME280;13506;50.852;20.632;2023-12-22T05:33:54;95054.13;;;5.05;81.94
21359;BME280;13506;50.852;20.632;2023-12-22T05:36:24;95057.53;;;5.05;82.28
21359;BME280;13506;50.852;20.632;2023-12-22T05:38:53;95051.44;;;5.06;81.59
21359;BME280;13506;50.852;20.632;2023-12-22T05:41:21;95048.72;;;5.08;81.17
21359;BME280;13506;50.852;20.632;2023-12-22T05:43:49;95040.84;;;5.09;81.24
21359;BME280;13506;50.852;20.632;2023-12-22T05:46:17;95051.16;;;5.09;81.39
21359;BME280;13506;50.852;20.632;2023-12-22T05:48:46;95051.03;;;5.11;80.66
21359;BME280;13506;50.852;20.632;2023-12-22T05:51:15;95060.13;;;4.96;80.65
21359;BME280;13506;50.852;20.632;2023-12-22T05:53:43;95053.34;;;4.95;80.73
21359;BME280;13506;50.852;20.632;2023-12-22T05:56:17;95057.16;;;4.81;81.48
21359;BME280;13506;50.852;20.632;2023-12-22T05:58:47;95036.28;;;4.74;81.74
21359;BME280;13506;50.852;20.632;2023-12-22T06:01:15;95030.03;;;4.67;82.49
21359;BME280;13506;50.852;20.632;2023-12-22T06:03:46;95041.66;;;4.61;82.51
21359;BME280;13506;50.852;20.632;2023-12-22T06:06:14;95042.06;;;4.57;82.36
21359;BME280;13506;50.852;20.632;2023-12-22T06:08:43;95053.59;;;4.53;82.17
21359;BME280;13506;50.852;20.632;2023-12-22T06:11:11;95047.38;;;4.55;81.96
21359;BME280;13506;50.852;20.632;2023-12-22T06:13:39;95052.78;;;4.52;81.59
21359;BME280;13506;50.852;20.632;2023-12-22T06:16:11;95064.56;;;4.55;81.20
21359;BME280;13506;50.852;20.632;2023-12-22T06:18:40;95086.25;;;4.52;80.72
21359;BME280;13506;50.852;20.632;2023-12-22T06:21:10;95062.50;;;4.48;80.59
21359;BME280;13506;50.852;20.632;2023-12-22T06:23:38;95067.81;;;4.47;80.33
21359;BME280;13506;50.852;20.632;2023-12-22T06:26:09;95076.47;;;4.46;80.41
21359;BME280;13506;50.852;20.632;2023-12-22T06:28:37;95080.94;;;4.44;80.31
21359;BME280;13506;50.852;20.632;2023-12-22T06:31:06;95080.25;;;4.42;79.68
21359;BME280;13506;50.852;20.632;2023-12-22T06:33:34;95099.75;;;4.44;79.58
21359;BME280;13506;50.852;20.632;2023-12-22T06:36:03;95091.91;;;4.46;79.71
21359;BME280;13506;50.852;20.632;2023-12-22T06:38:33;95096.66;;;4.51;79.14
21359;BME280;13506;50.852;20.632;2023-12-22T06:41:03;95107.22;;;4.47;78.80
21359;BME280;13506;50.852;20.632;2023-12-22T06:43:31;95108.84;;;4.48;79.25
21359;BME280;13506;50.852;20.632;2023-12-22T06:46:00;95107.91;;;4.49;79.02
21359;BME280;13506;50.852;20.632;2023-12-22T06:48:28;95111.72;;;4.55;78.73
21359;BME280;13506;50.852;20.632;2023-12-22T06:50:56;95117.28;;;4.60;78.42
21359;BME280;13506;50.852;20.632;2023-12-22T06:53:24;95135.00;;;4.54;78.49
21359;BME280;13506;50.852;20.632;2023-12-22T06:55:54;95138.28;;;4.56;79.42
21359;BME280;13506;50.852;20.632;2023-12-22T06:58:23;95146.25;;;4.53;79.27
21359;BME280;13506;50.852;20.632;2023-12-22T07:00:52;95127.81;;;4.47;80.56
21359;BME280;13506;50.852;20.632;2023-12-22T07:03:20;95154.00;;;4.62;80.73
21359;BME280;13506;50.852;20.632;2023-12-22T07:05:48;95152.25;;;4.73;80.31
21359;BME280;13506;50.852;20.632;2023-12-22T07:08:17;95159.31;;;4.80;79.52
21359;BME280;13506;50.852;20.632;2023-12-22T07:10:45;95168.69;;;4.81;77.80
21359;BME280;13506;50.852;20.632;2023-12-22T07:13:15;95173.69;;;4.83;77.64
21359;BME280;13506;50.852;20.632;2023-12-22T07:15:43;95161.75;;;4.82;77.28
21359;BME280;13506;50.852;20.632;2023-12-22T07:18:11;95165.16;;;4.92;77.14
21359;BME280;13506;50.852;20.632;2023-12-22T07:20:39;95194.44;;;5.01;76.59
21359;BME280;13506;50.852;20.632;2023-12-22T07:23:10;95200.00;;;4.96;78.17
21359;BME280;13506;50.852;20.632;2023-12-22T07:25:38;95203.06;;;4.80;80.15
21359;BME280;13506;50.852;20.632;2023-12-22T07:28:07;95219.63;;;4.78;80.97
21359;BME280;13506;50.852;20.632;2023-12-22T07:30:36;95216.50;;;4.74;80.60
21359;BME280;13506;50.852;20.632;2023-12-22T07:33:05;95220.97;;;4.72;80.75
21359;BME280;13506;50.852;20.632;2023-12-22T07:35:33;95220.28;;;4.70;80.59
21359;BME280;13506;50.852;20.632;2023-12-22T07:38:01;95232.25;;;4.81;80.52
21359;BME280;13506;50.852;20.632;2023-12-22T07:40:30;95226.16;;;5.01;79.41
21359;BME280;13506;50.852;20.632;2023-12-22T07:42:58;95238.84;;;5.43;78.53
21359;BME280;13506;50.852;20.632;2023-12-22T07:45:26;95239.50;;;6.14;75.83
21359;BME280;13506;50.852;20.632;2023-12-22T07:47:57;95250.22;;;6.66;71.44
21359;BME280;13506;50.852;20.632;2023-12-22T07:50:24;95246.38;;;6.80;70.18
21359;BME280;13506;50.852;20.632;2023-12-22T07:52:53;95242.41;;;6.85;68.20
21359;BME280;13506;50.852;20.632;2023-12-22T07:55:20;95234.03;;;6.73;67.60
21359;BME280;13506;50.852;20.632;2023-12-22T07:57:48;95248.63;;;7.20;69.14
21359;BME280;13506;50.852;20.632;2023-12-22T08:00:17;95259.72;;;7.84;66.85
21359;BME280;13506;50.852;20.632;2023-12-22T08:02:45;95259.34;;;7.97;64.88
21359;BME280;13506;50.852;20.632;2023-12-22T08:05:15;95249.84;;;7.80;63.93
21359;BME280;13506;50.852;20.632;2023-12-22T08:07:43;95257.81;;;7.50;63.74
21359;BME280;13506;50.852;20.632;2023-12-22T08:10:12;95247.28;;;7.34;64.81
21359;BME280;13506;50.852;20.632;2023-12-22T08:12:40;95240.19;;;7.18;63.85
21359;BME280;13506;50.852;20.632;2023-12-22T08:15:09;95251.22;;;7.38;65.31
21359;BME280;13506;50.852;20.632;2023-12-22T08:17:46;95252.41;;;7.62;64.33
21359;BME280;13506;50.852;20.632;2023-12-22T08:20:18;95254.91;;;8.07;63.60
21359;BME280;13506;50.852;20.632;2023-12-22T08:22:46;95248.06;;;8.76;61.40
21359;BME280;13506;50.852;20.632;2023-12-22T08:25:15;95250.88;;;9.34;58.49
21359;BME280;13506;50.852;20.632;2023-12-22T08:27:46;95269.50;;;10.29;55.42
21359;BME280;13506;50.852;20.632;2023-12-22T08:30:14;95269.50;;;10.29;55.42
21359;BME280;13506;50.852;20.632;2023-12-22T08:32:42;95264.28;;;12.18;50.83
21359;BME280;13506;50.852;20.632;2023-12-22T08:35:10;95278.59;;;11.99;50.44
21359;BME280;13506;50.852;20.632;2023-12-22T08:37:40;95273.47;;;11.20;50.13
21359;BME280;13506;50.852;20.632;2023-12-22T08:40:08;95265.91;;;10.30;51.63
21359;BME280;13506;50.852;20.632;2023-12-22T08:42:37;95266.22;;;10.19;52.17
21359;BME280;13506;50.852;20.632;2023-12-22T08:45:06;95280.00;;;9.87;53.20
21359;BME280;13506;50.852;20.632;2023-12-22T08:47:35;95286.03;;;9.28;54.38
21359;BME280;13506;50.852;20.632;2023-12-22T08:50:03;95273.78;;;9.04;54.71
21359;BME280;13506;50.852;20.632;2023-12-22T08:52:34;95267.91;;;9.36;54.86
21359;BME280;13506;50.852;20.632;2023-12-22T08:55:04;95274.81;;;9.78;54.38
21359;BME280;13506;50.852;20.632;2023-12-22T08:57:32;95277.88;;;10.64;52.97
21359;BME280;13506;50.852;20.632;2023-12-22T09:00:00;95282.56;;;11.25;50.55
21359;BME280;13506;50.852;20.632;2023-12-22T09:02:30;95269.44;;;11.72;49.36
21359;BME280;13506;50.852;20.632;2023-12-22T09:04:58;95282.88;;;11.61;48.40
21359;BME280;13506;50.852;20.632;2023-12-22T09:07:27;95275.50;;;11.02;48.68
21359;BME280;13506;50.852;20.632;2023-12-22T09:09:54;95278.72;;;10.48;49.16
21359;BME280;13506;50.852;20.632;2023-12-22T09:12:24;95280.00;;;9.78;50.65
21359;BME280;13506;50.852;20.632;2023-12-22T09:14:52;95290.53;;;9.77;51.58
21359;BME280;13506;50.852;20.632;2023-12-22T09:17:20;95282.91;;;9.67;51.03
21359;BME280;13506;50.852;20.632;2023-12-22T09:19:48;95284.59;;;9.34;52.50
21359;BME280;13506;50.852;20.632;2023-12-22T09:22:16;95260.97;;;9.53;52.63
21359;BME280;13506;50.852;20.632;2023-12-22T09:24:44;95264.44;;;9.87;51.26
21359;BME280;13506;50.852;20.632;2023-12-22T09:27:13;95255.00;;;10.10;51.23
21359;BME280;13506;50.852;20.632;2023-12-22T09:29:42;95251.94;;;10.15;51.24
21359;BME280;13506;50.852;20.632;2023-12-22T09:32:10;95238.28;;;10.46;50.79
21359;BME280;13506;50.852;20.632;2023-12-22T09:34:38;95234.63;;;10.79;49.91
21359;BME280;13506;50.852;20.632;2023-12-22T09:37:07;95226.13;;;10.86;49.46
21359;BME280;13506;50.852;20.632;2023-12-22T09:39:35;95227.69;;;10.64;49.76
21359;BME280;13506;50.852;20.632;2023-12-22T09:42:04;95229.34;;;10.24;50.43
21359;BME280;13506;50.852;20.632;2023-12-22T09:44:33;95221.56;;;9.66;50.80
21359;BME280;13506;50.852;20.632;2023-12-22T09:47:06;95227.91;;;8.96;52.96
21359;BME280;13506;50.852;20.632;2023-12-22T09:49:35;95202.03;;;8.36;54.33
21359;BME280;13506;50.852;20.632;2023-12-22T09:52:05;95228.00;;;8.00;56.65
21359;BME280;13506;50.852;20.632;2023-12-22T09:54:33;95206.81;;;7.61;57.68
21359;BME280;13506;50.852;20.632;2023-12-22T09:57:03;95185.31;;;7.24;60.28
21359;BME280;13506;50.852;20.632;2023-12-22T09:59:33;95186.31;;;6.96;61.01
21359;BME280;13506;50.852;20.632;2023-12-22T10:02:03;95203.31;;;6.70;62.49
21359;BME280;13506;50.852;20.632;2023-12-22T10:04:33;95203.50;;;6.59;63.69
21359;BME280;13506;50.852;20.632;2023-12-22T10:07:03;95193.69;;;6.35;67.25
21359;BME280;13506;50.852;20.632;2023-12-22T10:09:32;95233.28;;;5.97;72.74
21359;BME280;13506;50.852;20.632;2023-12-22T10:12:02;95205.91;;;5.57;75.89
21359;BME280;13506;50.852;20.632;2023-12-22T10:14:32;95196.41;;;5.38;77.42
21359;BME280;13506;50.852;20.632;2023-12-22T10:17:02;95185.38;;;5.16;80.49
21359;BME280;13506;50.852;20.632;2023-12-22T10:19:32;95187.25;;;4.95;81.30
21359;BME280;13506;50.852;20.632;2023-12-22T10:22:00;95184.28;;;4.89;82.76
21359;BME280;13506;50.852;20.632;2023-12-22T10:24:38;95176.97;;;4.85;83.43
21359;BME280;13506;50.852;20.632;2023-12-22T10:27:09;95171.50;;;4.78;84.85
21359;BME280;13506;50.852;20.632;2023-12-22T10:29:37;95187.50;;;4.72;85.88
21359;BME280;13506;50.852;20.632;2023-12-22T10:32:07;95174.47;;;4.64;85.56
21359;BME280;13506;50.852;20.632;2023-12-22T10:34:36;95175.69;;;4.60;87.24
21359;BME280;13506;50.852;20.632;2023-12-22T10:37:05;95177.69;;;4.56;87.17
21359;BME280;13506;50.852;20.632;2023-12-22T10:39:33;95201.44;;;4.69;86.01
21359;BME280;13506;50.852;20.632;2023-12-22T10:42:04;95194.25;;;4.73;86.78
21359;BME280;13506;50.852;20.632;2023-12-22T10:44:32;95193.47;;;4.82;86.94
21359;BME280;13506;50.852;20.632;2023-12-22T10:47:01;95182.63;;;4.88;88.18
21359;BME280;13506;50.852;20.632;2023-12-22T10:49:30;95185.91;;;4.90;88.56
21359;BME280;13506;50.852;20.632;2023-12-22T10:52:02;95189.59;;;4.98;88.54
21359;BME280;13506;50.852;20.632;2023-12-22T10:54:30;95162.47;;;5.03;87.86
21359;BME280;13506;50.852;20.632;2023-12-22T10:56:59;95185.78;;;5.02;87.78
21359;BME280;13506;50.852;20.632;2023-12-22T10:59:29;95171.53;;;4.88;87.99
21359;BME280;13506;50.852;20.632;2023-12-22T11:01:58;95163.09;;;4.76;88.66
21359;BME280;13506;50.852;20.632;2023-12-22T11:04:30;95194.78;;;4.67;88.95
21359;BME280;13506;50.852;20.632;2023-12-22T11:07:04;95178.50;;;4.57;88.95
21359;BME280;13506;50.852;20.632;2023-12-22T11:09:34;95180.38;;;4.55;89.80
21359;BME280;13506;50.852;20.632;2023-12-22T11:12:05;95174.38;;;4.44;89.55
21359;BME280;13506;50.852;20.632;2023-12-22T11:14:35;95147.72;;;4.45;89.81
21359;BME280;13506;50.852;20.632;2023-12-22T11:17:06;95156.38;;;4.44;89.77
21359;BME280;13506;50.852;20.632;2023-12-22T11:19:35;95179.53;;;4.44;89.27
21359;BME280;13506;50.852;20.632;2023-12-22T11:22:07;95170.59;;;4.39;89.84
21359;BME280;13506;50.852;20.632;2023-12-22T11:24:36;95154.59;;;4.35;90.44
21359;BME280;13506;50.852;20.632;2023-12-22T11:27:06;95157.72;;;4.39;90.19
21359;BME280;13506;50.852;20.632;2023-12-22T11:29:37;95155.72;;;4.42;90.83
21359;BME280;13506;50.852;20.632;2023-12-22T11:32:07;95149.09;;;4.49;89.81
21359;BME280;13506;50.852;20.632;2023-12-22T11:34:37;95149.50;;;4.55;89.18
21359;BME280;13506;50.852;20.632;2023-12-22T11:37:08;95134.06;;;4.55;87.94
21359;BME280;13506;50.852;20.632;2023-12-22T11:39:37;95146.91;;;4.55;87.79
21359;BME280;13506;50.852;20.632;2023-12-22T11:42:08;95127.00;;;4.57;87.74
21359;BME280;13506;50.852;20.632;2023-12-22T11:44:37;95135.69;;;4.56;87.49
21359;BME280;13506;50.852;20.632;2023-12-22T11:47:07;95123.38;;;4.59;87.40
21359;BME280;13506;50.852;20.632;2023-12-22T11:49:36;95126.75;;;4.69;87.63
21359;BME280;13506;50.852;20.632;2023-12-22T11:52:12;95139.66;;;4.79;86.62
21359;BME280;13506;50.852;20.632;2023-12-22T11:54:45;95120.97;;;4.77;86.57
21359;BME280;13506;50.852;20.632;2023-12-22T11:57:33;95128.97;;;4.74;87.45
21359;BME280;13506;50.852;20.632;2023-12-22T12:00:05;95118.41;;;4.97;88.03
21359;BME280;13506;50.852;20.632;2023-12-22T12:02:40;95125.72;;;5.11;87.19
21359;BME280;13506;50.852;20.632;2023-12-22T12:05:09;95099.13;;;5.20;87.37
21359;BME280;13506;50.852;20.632;2023-12-22T12:07:46;95107.53;;;5.22;85.84
21359;BME280;13506;50.852;20.632;2023-12-22T12:10:50;95102.94;;;5.16;85.08
21359;BME280;13506;50.852;20.632;2023-12-22T12:13:23;95071.50;;;5.03;85.03
21359;BME280;13506;50.852;20.632;2023-12-22T12:15:53;95079.63;;;4.98;85.17
21359;BME280;13506;50.852;20.632;2023-12-22T12:18:23;95083.16;;;4.97;85.56
21359;BME280;13506;50.852;20.632;2023-12-22T12:20:52;95082.88;;;4.90;86.23
21359;BME280;13506;50.852;20.632;2023-12-22T12:23:24;95087.75;;;4.84;86.65
21359;BME280;13506;50.852;20.632;2023-12-22T12:25:54;95052.94;;;4.70;87.07
21359;BME280;13506;50.852;20.632;2023-12-22T12:28:29;95075.28;;;4.60;88.04
21359;BME280;13506;50.852;20.632;2023-12-22T12:30:59;95076.59;;;4.44;89.79
21359;BME280;13506;50.852;20.632;2023-12-22T12:33:27;95072.00;;;4.38;90.31
21359;BME280;13506;50.852;20.632;2023-12-22T12:35:57;95059.06;;;4.19;91.40
21359;BME280;13506;50.852;20.632;2023-12-22T12:38:42;95061.88;;;4.06;92.86
21359;BME280;13506;50.852;20.632;2023-12-22T12:41:11;95073.19;;;3.84;93.92
21359;BME280;13506;50.852;20.632;2023-12-22T12:43:42;95050.16;;;3.73;95.53
21359;BME280;13506;50.852;20.632;2023-12-22T12:46:11;95070.38;;;3.66;95.84
21359;BME280;13506;50.852;20.632;2023-12-22T12:48:39;95087.28;;;3.59;96.95
21359;BME280;13506;50.852;20.632;2023-12-22T12:51:08;95084.13;;;3.55;98.68
21359;BME280;13506;50.852;20.632;2023-12-22T12:53:38;95083.91;;;3.58;100.00
21359;BME280;13506;50.852;20.632;2023-12-22T12:56:07;95075.91;;;3.61;100.00
21359;BME280;13506;50.852;20.632;2023-12-22T12:58:34;95099.13;;;3.81;98.83
21359;BME280;13506;50.852;20.632;2023-12-22T13:01:09;95099.59;;;3.86;100.00
21359;BME280;13506;50.852;20.632;2023-12-22T13:03:55;95105.31;;;3.69;100.00
21359;BME280;13506;50.852;20.632;2023-12-22T13:06:24;95101.91;;;3.68;100.00
21359;BME280;13506;50.852;20.632;2023-12-22T13:08:54;95100.22;;;3.78;100.00
21359;BME280;13506;50.852;20.632;2023-12-22T13:11:23;95124.59;;;3.84;100.00